Portada
METAR-TAF:

METAR-TAF

Aeroports :

Hyderabad, Índia

latitud: 17-27N, longitud: 078-28E, altitud: 530 m

Observació

L'informe es va fer fa 19 minuts, a les 10:30 UTC
Vent 6 kt del Est
Temperatura 30°C
Humitat 40%
Pressió 1015 hPa
Visibilitat: 6000 m

METAR: VOHY 271030Z 10006KT 6000 NSC 30/15 Q1015 NOSIG

Hora: 16:19 (10:49 UTC)

Pronòstic

L'informe es va fer fa 2 hores i 49 minuts, a les 08:00 UTC
Pronòstic vàlid del 27 a les 09 UTC al 27 a les 18 UTC
Vent 10 kt del Est
Visibilitat: 6000 m
Escasses núvols a una alçada de 1500 ft
Evolucionant progressivament
l' 27 a les 15 UTC al 27 a les 17 UTC
Vent 7 kt del Sud-Est
Visibilitat: 5000 m
Núvols disperses a una alçada de 1500 ft
calitja

TAF: VOHY 270800Z 2709/2718 08010KT 6000 FEW015 BECMG 2715/2717 13007KT 5000 HZ SCT015

Observacions i pronòstics meteorològics de més de 4000 aeroports (METAR i TAF).

Les estacions disponibles són els punts grocs i vermells al mapa.

Posi el ratolí al punt desitjat per veure el nom de l'estació.

Feu clic per veure les observacions i els pronòstics meteorològics.

Per canviar el mapa: feu clic els botons verds amb una creu de color negre per apropar; al botó verd amb un guió per allunyar la imatge; o en les fletxes verdes per a mapes adjacents.


METAR-TAF: